Hansa Limburg — A8IH6 — position and weather

sailwx.info

Track history (hours):
 
Tides and Currents Weather Stations Pressure Air Temp Water Temp Dewpoint Dewpoint Depression Visibility Wind Speed Wind Dir Waves Ship Positions

Hansa Limburg

Last reported at 2015-Aug-27 18:13 UTC. Time now 2015-Aug-28 00:15 UTC.
Position N 36°46' E 000°03'.

Length 175.5 m; beam 27.4 m; draft 10.9 m.

Type: Ship (hazmat cat A). MMSI: 636090980.

Date/timePositionNaut miles runAvg speedWind from/ knotsBaromVisibWave heightAir tempDewpointWater temp
2015-Aug-27 18:13N 36°46' E 000°03'1419.6
2015-Aug-27 17:31N 36°49' E 000°19'7519.0
2015-Aug-27 13:33N 37°10' E 001°50'2020.1
2015-Aug-27 12:33N 37°15' E 002°14'2019.7
2015-Aug-27 11:32N 37°21' E 002°39'1919.1
2015-Aug-27 10:32N 37°26' E 003°02'1919.3
2015-Aug-27 09:32N 37°32' E 003°25'2019.9
2015-Aug-27 08:33N 37°37' E 003°49'2019.8
2015-Aug-27 07:34N 37°42' E 004°13'2219.8
2015-Aug-27 06:28N 37°48' E 004°39'1819.8
2015-Aug-27 05:34N 37°53' E 005°01'2019.7
2015-Aug-27 04:34N 37°58' E 005°25'2219.6
2015-Aug-27 03:25N 38°05' E 005°52'13819.4
2015-Aug-26 20:19N 38°45' E 008°41'1519.0
2015-Aug-26 19:33N 38°52' E 008°57'1616.3
2015-Aug-26 18:33N 39°06' E 009°07'7 7.1
2015-Aug-26 17:33N 39°13' E 009°05'0 0.0
2015-Aug-26 16:33N 39°13' E 009°05'0 0.0
2015-Aug-26 15:33N 39°13' E 009°05'0 0.0
2015-Aug-26 14:33N 39°13' E 009°05'0 0.0
2015-Aug-26 13:33N 39°13' E 009°05'0 0.0
2015-Aug-26 12:33N 39°13' E 009°05'0 0.0
2015-Aug-26 11:33N 39°13' E 009°05'0 0.0
2015-Aug-26 10:33N 39°13' E 009°05'0 0.0
2015-Aug-26 09:33N 39°13' E 009°05'0 0.0
2015-Aug-26 08:33N 39°13' E 009°05'0 0.0
2015-Aug-26 07:33N 39°13' E 009°05'0 0.0
2015-Aug-26 06:33N 39°13' E 009°05'0 0.0
2015-Aug-26 05:33N 39°13' E 009°05'3 3.1
2015-Aug-26 04:33N 39°10' E 009°06'5 4.5
2015-Aug-26 03:33N 39°06' E 009°10'1414.3
2015-Aug-26 02:33N 38°58' E 009°25'1818.0
2015-Aug-26 01:33N 38°48' E 009°45'3618.2
2015-Aug-25 23:33N 38°29' E 010°23'1817.7
2015-Aug-25 22:33N 38°19' E 010°42'2317.8
2015-Aug-25 21:16N 38°06' E 011°07'1317.7
2015-Aug-25 20:33N 37°59' E 011°20'4017.3
2015-Aug-25 18:16N 37°38' E 012°02'1317.6
2015-Aug-25 17:33N 37°31' E 012°16'1818.0
2015-Aug-25 16:33N 37°21' E 012°34'1817.7
2015-Aug-25 15:33N 37°13' E 012°54'1817.5
2015-Aug-25 14:31N 37°06' E 013°15'1717.5
2015-Aug-25 13:33N 36°59' E 013°35'1717.6
2015-Aug-25 12:33N 36°52' E 013°54'1817.8
2015-Aug-25 11:34N 36°45' E 014°15'1817.6
2015-Aug-25 10:34N 36°38' E 014°35'1717.2
2015-Aug-25 09:34N 36°34' E 014°55'1817.4
2015-Aug-25 08:33N 36°32' E 015°17'1717.5
2015-Aug-25 07:33N 36°32' E 015°39'1818.0
2015-Aug-25 06:33N 36°31' E 016°01'1817.8
2015-Aug-25 05:33N 36°30' E 016°24'1917.5
2015-Aug-25 04:27N 36°30' E 016°47'1617.6
2015-Aug-25 03:34N 36°29' E 017°07'14418.0
2015-Aug-24 19:33N 36°24' E 020°06'22315.9
2015-Aug-24 05:33N 37°49' E 024°24'137 2.7
2015-Aug-22 03:23N 36°41' E 026°54'1616.6
2015-Aug-22 02:24N 36°32' E 027°11'  
2015-Aug-19 07:14N 34°27' E 034°02'1115.9
2015-Aug-19 06:32N 34°17' E 033°55'1616.0
2015-Aug-19 05:33N 34°05' E 033°43'1715.8
2015-Aug-19 04:29N 33°51' E 033°32'1415.1
2015-Aug-19 03:33N 33°39' E 033°22'1514.9
2015-Aug-19 02:33N 33°26' E 033°13'1515.0
2015-Aug-19 01:33N 33°14' E 033°03'1615.5
2015-Aug-19 00:32N 33°00' E 032°53'3115.5
2015-Aug-18 22:33N 32°34' E 032°34'2315.4
2015-Aug-18 21:05N 32°15' E 032°20'815.5
2015-Aug-18 20:33N 32°08' E 032°15'1515.5
2015-Aug-18 19:33N 31°55' E 032°06'2914.5
2015-Aug-18 17:31N 31°31' E 031°46'59 3.6
2015-Aug-18 01:24N 31°41' E 030°38'1513.1
2015-Aug-18 00:15N 31°39' E 030°21'  
Track history (hours):
 
Tides and Currents Weather Stations Pressure Air Temp Water Temp Dewpoint Dewpoint Depression Visibility Wind Speed Wind Dir Waves Ship Positions

Hansa Limburg

Last reported at 2015-Aug-27 18:13 UTC. Time now 2015-Aug-28 00:15 UTC.
Position N 36°46' E 000°03'.

Length 175.5 m; beam 27.4 m; draft 10.9 m.

Type: Ship (hazmat cat A). MMSI: 636090980.

Date/timePositionNaut miles runAvg speedWind from/ knotsBaromVisibWave heightAir tempDewpointWater temp
2015-Aug-27 18:13N 36°46' E 000°03'1419.6
2015-Aug-27 17:31N 36°49' E 000°19'7519.0
2015-Aug-27 13:33N 37°10' E 001°50'2020.1
2015-Aug-27 12:33N 37°15' E 002°14'2019.7
2015-Aug-27 11:32N 37°21' E 002°39'1919.1
2015-Aug-27 10:32N 37°26' E 003°02'1919.3
2015-Aug-27 09:32N 37°32' E 003°25'2019.9
2015-Aug-27 08:33N 37°37' E 003°49'2019.8
2015-Aug-27 07:34N 37°42' E 004°13'2219.8
2015-Aug-27 06:28N 37°48' E 004°39'1819.8
2015-Aug-27 05:34N 37°53' E 005°01'2019.7
2015-Aug-27 04:34N 37°58' E 005°25'2219.6
2015-Aug-27 03:25N 38°05' E 005°52'13819.4
2015-Aug-26 20:19N 38°45' E 008°41'1519.0
2015-Aug-26 19:33N 38°52' E 008°57'1616.3
2015-Aug-26 18:33N 39°06' E 009°07'7 7.1
2015-Aug-26 17:33N 39°13' E 009°05'0 0.0
2015-Aug-26 16:33N 39°13' E 009°05'0 0.0
2015-Aug-26 15:33N 39°13' E 009°05'0 0.0
2015-Aug-26 14:33N 39°13' E 009°05'0 0.0
2015-Aug-26 13:33N 39°13' E 009°05'0 0.0
2015-Aug-26 12:33N 39°13' E 009°05'0 0.0
2015-Aug-26 11:33N 39°13' E 009°05'0 0.0
2015-Aug-26 10:33N 39°13' E 009°05'0 0.0
2015-Aug-26 09:33N 39°13' E 009°05'0 0.0
2015-Aug-26 08:33N 39°13' E 009°05'0 0.0
2015-Aug-26 07:33N 39°13' E 009°05'0 0.0
2015-Aug-26 06:33N 39°13' E 009°05'0 0.0
2015-Aug-26 05:33N 39°13' E 009°05'3 3.1
2015-Aug-26 04:33N 39°10' E 009°06'5 4.5
2015-Aug-26 03:33N 39°06' E 009°10'1414.3
2015-Aug-26 02:33N 38°58' E 009°25'1818.0
2015-Aug-26 01:33N 38°48' E 009°45'3618.2
2015-Aug-25 23:33N 38°29' E 010°23'1817.7
2015-Aug-25 22:33N 38°19' E 010°42'2317.8
2015-Aug-25 21:16N 38°06' E 011°07'1317.7
2015-Aug-25 20:33N 37°59' E 011°20'4017.3
2015-Aug-25 18:16N 37°38' E 012°02'1317.6
2015-Aug-25 17:33N 37°31' E 012°16'1818.0
2015-Aug-25 16:33N 37°21' E 012°34'1817.7
2015-Aug-25 15:33N 37°13' E 012°54'1817.5
2015-Aug-25 14:31N 37°06' E 013°15'1717.5
2015-Aug-25 13:33N 36°59' E 013°35'1717.6
2015-Aug-25 12:33N 36°52' E 013°54'1817.8
2015-Aug-25 11:34N 36°45' E 014°15'1817.6
2015-Aug-25 10:34N 36°38' E 014°35'1717.2
2015-Aug-25 09:34N 36°34' E 014°55'1817.4
2015-Aug-25 08:33N 36°32' E 015°17'1717.5
2015-Aug-25 07:33N 36°32' E 015°39'1818.0
2015-Aug-25 06:33N 36°31' E 016°01'1817.8
2015-Aug-25 05:33N 36°30' E 016°24'1917.5
2015-Aug-25 04:27N 36°30' E 016°47'1617.6
2015-Aug-25 03:34N 36°29' E 017°07'14418.0
2015-Aug-24 19:33N 36°24' E 020°06'22315.9
2015-Aug-24 05:33N 37°49' E 024°24'137 2.7
2015-Aug-22 03:23N 36°41' E 026°54'1616.6
2015-Aug-22 02:24N 36°32' E 027°11'  
2015-Aug-19 07:14N 34°27' E 034°02'1115.9
2015-Aug-19 06:32N 34°17' E 033°55'1616.0
2015-Aug-19 05:33N 34°05' E 033°43'1715.8
2015-Aug-19 04:29N 33°51' E 033°32'1415.1
2015-Aug-19 03:33N 33°39' E 033°22'1514.9
2015-Aug-19 02:33N 33°26' E 033°13'1515.0
2015-Aug-19 01:33N 33°14' E 033°03'1615.5
2015-Aug-19 00:32N 33°00' E 032°53'3115.5
2015-Aug-18 22:33N 32°34' E 032°34'2315.4
2015-Aug-18 21:05N 32°15' E 032°20'815.5
2015-Aug-18 20:33N 32°08' E 032°15'1515.5
2015-Aug-18 19:33N 31°55' E 032°06'2914.5
2015-Aug-18 17:31N 31°31' E 031°46'59 3.6
2015-Aug-18 01:24N 31°41' E 030°38'1513.1
2015-Aug-18 00:15N 31°39' E 030°21'  

Dump ship's entire track history